Renville, Minnesota
Current Conditions -  °F | °C
As of 3:33 AM on Monday 24 Nov 2014 (Local Time) from KOVL Reporting Station
Overcast Overcast  
Wind Chill: -15°   Ceiling: 1300
Heat Index: -6°   Visibility: 10mi
Dew Point: -8°   Wind: 24mph
Humidity: 86%   Direction: 320°NW
Pressure: 29.44"   Gusts: 35mph
Location:  44.79°N, 95.21°W
Report Text: KOVL 240933Z AUTO 32021G30KT 10SM OVC013 M06/M08 A2944 RMK AO2
Loading
Personal Weather Stations






























Interactive Weather Map New forecast layout! Learn more

10-Day Weather Forecast

Advertisements
Track Severe Weather on mobile